createdAt,value
2022-10-11T00:00:27.861Z,4.15
2022-10-11T00:02:54.953Z,3.58
2022-10-11T00:05:21.993Z,3.67
2022-10-11T00:07:49.011Z,2.80
2022-10-11T00:10:18.168Z,2.92
2022-10-11T00:12:54.639Z,3.10
2022-10-11T00:15:23.502Z,4.55
2022-10-11T00:17:54.561Z,2.53
2022-10-11T00:20:28.550Z,2.50
2022-10-11T00:22:57.778Z,4.05
2022-10-11T00:25:25.011Z,4.35
2022-10-11T00:27:52.554Z,4.25
2022-10-11T00:30:23.478Z,2.85
2022-10-11T00:32:51.221Z,3.90
2022-10-11T00:35:21.187Z,3.45
2022-10-11T00:37:49.067Z,4.57
2022-10-11T00:40:19.450Z,5.38
2022-10-11T00:42:52.514Z,5.00
2022-10-11T00:45:37.429Z,4.18
2022-10-11T00:48:17.692Z,4.90
2022-10-11T00:50:45.568Z,6.53
2022-10-11T00:53:16.767Z,5.18
2022-10-11T00:55:51.784Z,4.50
2022-10-11T00:58:24.321Z,6.82
2022-10-11T01:01:00.552Z,7.00
2022-10-11T01:03:37.969Z,6.25
2022-10-11T01:06:07.591Z,4.47
2022-10-11T01:08:47.348Z,4.43
2022-10-11T01:11:19.140Z,4.50
2022-10-11T01:14:12.111Z,4.30
2022-10-11T01:16:45.329Z,5.10
2022-10-11T01:19:41.550Z,5.03
2022-10-11T01:22:49.117Z,5.10
2022-10-11T01:25:34.050Z,5.35
2022-10-11T01:28:39.115Z,6.30
2022-10-11T01:31:30.740Z,5.45
2022-10-11T01:34:12.752Z,6.10
2022-10-11T01:36:54.974Z,8.52
2022-10-11T01:39:44.846Z,5.50
2022-10-11T01:42:14.019Z,7.68
2022-10-11T01:44:49.287Z,5.95
2022-10-11T01:47:30.745Z,5.57
2022-10-11T01:50:05.480Z,16.08
2022-10-11T01:52:40.324Z,5.47
2022-10-11T01:55:38.824Z,6.15
2022-10-11T01:58:35.812Z,7.70
2022-10-11T02:01:43.721Z,9.60
2022-10-11T02:04:23.780Z,6.82
2022-10-11T02:07:18.923Z,12.63
2022-10-11T02:10:33.161Z,6.13
2022-10-11T02:13:06.073Z,7.25
2022-10-11T02:15:39.298Z,6.45
2022-10-11T02:18:19.288Z,6.68
2022-10-11T02:21:00.899Z,6.88
2022-10-11T02:23:38.028Z,6.47
2022-10-11T02:26:15.188Z,6.80
2022-10-11T02:28:45.196Z,6.07
2022-10-11T02:31:16.763Z,7.35
2022-10-11T02:34:04.867Z,6.78
2022-10-11T02:37:00.306Z,7.75
2022-10-11T02:39:44.887Z,8.40
2022-10-11T02:42:29.921Z,6.20
2022-10-11T02:45:21.268Z,7.03
2022-10-11T02:47:55.447Z,8.27
2022-10-11T02:50:28.489Z,8.38
2022-10-11T02:52:56.028Z,7.88
2022-10-11T02:55:23.287Z,7.25
2022-10-11T02:57:50.739Z,8.68
2022-10-11T03:00:23.464Z,7.78
2022-10-11T03:02:50.877Z,7.38
2022-10-11T03:05:25.547Z,7.27
2022-10-11T03:07:55.124Z,6.38
2022-10-11T03:10:25.228Z,10.43
2022-10-11T03:12:52.491Z,8.55
2022-10-11T03:15:23.785Z,7.35
2022-10-11T03:17:51.341Z,6.05
2022-10-11T03:20:19.070Z,5.45
2022-10-11T03:22:58.567Z,17.77
2022-10-11T03:25:28.958Z,9.60
2022-10-11T03:27:56.583Z,8.70
2022-10-11T03:30:26.886Z,5.97
2022-10-11T03:32:54.185Z,11.30
2022-10-11T03:35:21.418Z,6.10
2022-10-11T03:37:48.958Z,11.80
2022-10-11T03:40:16.184Z,7.55
2022-10-11T03:42:45.836Z,7.80
2022-10-11T03:45:25.109Z,9.13
2022-10-11T03:47:55.735Z,11.65
2022-10-11T03:50:23.262Z,9.05
2022-10-11T03:52:51.130Z,7.93
2022-10-11T03:55:27.549Z,10.48
2022-10-11T03:57:54.909Z,7.22
2022-10-11T04:00:24.388Z,8.05
2022-10-11T04:02:51.847Z,7.63
2022-10-11T04:05:19.340Z,9.90
2022-10-11T04:07:46.471Z,9.45
2022-10-11T04:10:14.493Z,12.45
2022-10-11T04:12:41.719Z,8.02
2022-10-11T04:15:09.041Z,16.00
2022-10-11T04:17:36.109Z,10.15
2022-10-11T04:20:04.017Z,8.95
2022-10-11T04:22:32.805Z,11.48
2022-10-11T04:25:00.707Z,32.15
2022-10-11T04:27:29.790Z,11.73
2022-10-11T04:29:57.441Z,8.98
2022-10-11T04:32:38.768Z,8.32
2022-10-11T04:35:22.997Z,15.20
2022-10-11T04:38:04.418Z,15.52
2022-10-11T04:40:37.211Z,13.45
2022-10-11T04:43:07.235Z,15.38
2022-10-11T04:45:36.780Z,17.95
2022-10-11T04:48:04.099Z,13.05
2022-10-11T04:50:32.672Z,13.00
2022-10-11T04:53:05.839Z,10.15
2022-10-11T04:55:35.541Z,13.65
2022-10-11T04:58:05.150Z,11.05
2022-10-11T05:00:37.008Z,10.90
2022-10-11T05:03:09.791Z,16.15
2022-10-11T05:05:42.385Z,18.70
2022-10-11T05:08:09.656Z,7.72
2022-10-11T05:10:37.026Z,10.07
2022-10-11T05:13:07.503Z,9.95
2022-10-11T05:15:47.484Z,8.43
2022-10-11T05:18:28.561Z,10.82
2022-10-11T05:21:15.165Z,11.25
2022-10-11T05:23:59.026Z,11.43
2022-10-11T05:26:31.616Z,12.80
2022-10-11T05:28:59.104Z,14.85
2022-10-11T05:31:26.671Z,8.27
2022-10-11T05:33:54.074Z,14.05
2022-10-11T05:36:21.839Z,25.90
2022-10-11T05:39:16.933Z,16.00
2022-10-11T05:42:13.772Z,11.40
2022-10-11T05:44:43.896Z,11.52
2022-10-11T05:48:17.127Z,14.77
2022-10-11T05:50:58.524Z,13.55
2022-10-11T05:53:59.329Z,10.50
2022-10-11T05:59:58.625Z,13.85
2022-10-11T06:02:31.312Z,12.57
2022-10-11T06:05:17.245Z,12.85
2022-10-11T06:08:06.457Z,12.88
2022-10-11T06:14:50.224Z,9.88
2022-10-11T06:20:58.146Z,8.73
2022-10-11T06:24:17.715Z,7.50
2022-10-11T06:31:41.307Z,9.65
2022-10-11T06:39:01.822Z,9.82
2022-10-11T06:41:42.872Z,6.90
2022-10-11T06:44:55.868Z,9.02
2022-10-11T06:47:51.268Z,5.95
2022-10-11T06:54:21.927Z,6.20
2022-10-11T06:57:05.645Z,6.13
2022-10-11T07:00:31.876Z,6.93
2022-10-11T07:10:14.845Z,4.03
2022-10-11T07:12:48.686Z,3.13
2022-10-11T07:57:53.167Z,6.95
2022-10-11T08:00:44.341Z,1.60
2022-10-11T08:03:46.276Z,2.08
2022-10-11T08:06:31.081Z,1.30
2022-10-11T08:12:18.712Z,2.25
2022-10-11T08:14:46.114Z,1.55
2022-10-11T08:17:21.179Z,1.93
2022-10-11T08:20:00.123Z,3.35
2022-10-11T08:22:51.636Z,3.67
2022-10-11T08:25:46.836Z,2.15
2022-10-11T08:28:21.693Z,0.93
2022-10-11T08:34:12.045Z,1.02
2022-10-11T08:39:46.323Z,2.08
2022-10-11T08:42:26.167Z,0.80
2022-10-11T08:45:53.554Z,3.72
2022-10-11T08:48:54.136Z,1.40
2022-10-11T08:53:02.858Z,1.63
2022-10-11T09:00:24.668Z,1.00
2022-10-11T09:03:31.594Z,3.42
2022-10-11T09:06:07.725Z,1.02
2022-10-11T09:08:59.201Z,1.50
2022-10-11T09:11:47.876Z,1.35
2022-10-11T09:14:43.568Z,5.05
2022-10-11T09:20:34.465Z,1.17
2022-10-11T09:26:32.481Z,1.73
2022-10-11T09:29:49.725Z,1.23
2022-10-11T09:32:44.045Z,2.28
2022-10-11T09:35:37.414Z,2.90
2022-10-11T09:38:19.705Z,8.05
2022-10-11T09:41:14.570Z,1.52
2022-10-11T09:43:48.586Z,1.55
2022-10-11T09:47:40.149Z,3.53
2022-10-11T09:55:08.999Z,4.35
2022-10-11T10:02:23.556Z,1.98
2022-10-11T10:08:58.542Z,1.75
2022-10-11T10:11:46.218Z,1.60
2022-10-11T10:33:07.478Z,2.08
2022-10-11T10:36:02.747Z,1.35
2022-10-11T10:39:03.529Z,1.95
2022-10-11T10:41:35.896Z,2.63
2022-10-11T10:44:35.665Z,1.35
2022-10-11T10:48:59.863Z,3.25
2022-10-11T10:52:08.060Z,2.65
2022-10-11T10:58:47.118Z,1.90
2022-10-11T11:01:34.435Z,10.90
2022-10-11T11:04:37.684Z,4.47
2022-10-11T11:07:24.731Z,2.60
2022-10-11T11:13:25.040Z,2.63
2022-10-11T11:19:52.354Z,3.90
2022-10-11T11:23:11.346Z,3.55
2022-10-11T11:26:11.750Z,1.90
2022-10-11T11:28:46.178Z,2.75
2022-10-11T11:31:40.195Z,1.70
2022-10-11T12:10:39.208Z,1.75
2022-10-11T12:17:16.653Z,2.08
2022-10-11T12:20:47.104Z,3.08
2022-10-11T12:23:30.440Z,2.08
2022-10-11T12:26:33.527Z,2.28
2022-10-11T12:29:29.371Z,1.48
2022-10-11T12:32:48.109Z,3.42
2022-10-11T12:38:43.470Z,2.55
2022-10-11T12:41:13.653Z,2.75
2022-10-11T12:43:49.812Z,2.95
2022-10-11T12:46:29.155Z,1.70
2022-10-11T12:49:47.386Z,1.02
2022-10-11T12:52:31.427Z,2.55
2022-10-11T12:55:16.244Z,2.60
2022-10-11T12:58:17.905Z,2.35
2022-10-11T13:00:57.376Z,1.90
2022-10-11T13:03:55.783Z,1.75
2022-10-11T13:06:59.534Z,5.85
2022-10-11T13:09:59.318Z,1.30
2022-10-11T13:12:38.516Z,1.98
2022-10-11T13:15:32.874Z,3.15
2022-10-11T13:18:05.314Z,2.50
2022-10-11T13:20:46.280Z,1.60
2022-10-11T13:23:29.403Z,3.30
2022-10-11T13:26:01.358Z,1.83
2022-10-11T13:28:48.636Z,1.30
2022-10-11T13:31:41.722Z,1.42
2022-10-11T13:34:35.494Z,2.38
2022-10-11T13:37:27.371Z,2.58
2022-10-11T13:40:13.362Z,4.03
2022-10-11T13:42:45.533Z,2.83
2022-10-11T13:45:51.954Z,1.80
2022-10-11T13:48:31.621Z,1.83
2022-10-11T13:51:52.532Z,1.55
2022-10-11T13:54:28.900Z,2.15
2022-10-11T13:56:59.930Z,1.33
2022-10-11T13:59:41.872Z,3.67
2022-10-11T14:02:48.712Z,4.32
2022-10-11T14:06:02.090Z,1.67
2022-10-11T14:09:02.031Z,2.20
2022-10-11T14:12:17.184Z,1.63
2022-10-11T14:14:44.109Z,1.65
2022-10-11T14:17:20.608Z,1.60
2022-10-11T14:20:15.003Z,2.17
2022-10-11T14:22:45.246Z,1.70
2022-10-11T14:25:13.374Z,1.42
2022-10-11T14:27:53.180Z,1.40
2022-10-11T14:30:26.924Z,1.58
2022-10-11T14:32:59.188Z,1.55
2022-10-11T14:35:43.543Z,1.88
2022-10-11T14:38:15.435Z,1.95
2022-10-11T14:40:42.633Z,9.52
2022-10-11T14:43:11.790Z,10.38
2022-10-11T14:45:43.983Z,4.75
2022-10-11T14:49:17.507Z,5.53
2022-10-11T14:52:37.010Z,9.30
2022-10-11T14:55:19.795Z,4.80
2022-10-11T15:01:09.748Z,3.53
2022-10-11T15:07:48.043Z,4.30
2022-10-11T15:18:32.394Z,8.63
2022-10-11T15:21:51.014Z,3.17
2022-10-11T15:24:32.288Z,7.32
2022-10-11T15:27:06.387Z,8.73
2022-10-11T15:29:46.569Z,11.30
2022-10-11T15:32:23.040Z,9.20
2022-10-11T15:35:01.577Z,10.30
2022-10-11T15:37:37.101Z,12.77
2022-10-11T15:40:29.448Z,11.13
2022-10-11T15:46:11.296Z,17.95
2022-10-11T15:49:14.962Z,25.35
2022-10-11T15:51:42.391Z,26.13
2022-10-11T15:54:18.257Z,24.65
2022-10-11T15:56:45.452Z,21.67
2022-10-11T15:59:13.064Z,13.00
2022-10-11T16:01:43.330Z,12.50
2022-10-11T16:04:16.237Z,10.45
2022-10-11T16:06:49.830Z,11.73
2022-10-11T16:12:17.664Z,8.80
2022-10-11T16:14:47.344Z,11.00
2022-10-11T16:17:22.726Z,14.60
2022-10-11T16:23:39.551Z,18.15
2022-10-11T16:26:10.079Z,16.38
2022-10-11T16:28:38.011Z,19.83
2022-10-11T16:31:15.641Z,18.20
2022-10-11T16:33:46.375Z,16.90
2022-10-11T16:36:40.821Z,11.80
2022-10-11T16:39:12.600Z,13.70
2022-10-11T16:41:40.005Z,17.25
2022-10-11T16:44:13.364Z,13.93
2022-10-11T16:46:40.340Z,14.25
2022-10-11T16:49:07.529Z,12.38
2022-10-11T16:51:36.090Z,19.30
2022-10-11T16:54:03.221Z,14.40
2022-10-11T16:56:30.402Z,15.65
2022-10-11T16:58:57.395Z,17.92
2022-10-11T17:01:46.422Z,20.00
2022-10-11T17:04:16.706Z,17.77
2022-10-11T17:06:48.507Z,18.35
2022-10-11T17:09:16.330Z,11.32
2022-10-11T17:11:44.289Z,9.20
2022-10-11T17:14:13.782Z,8.82
2022-10-11T17:16:40.861Z,15.73
2022-10-11T17:19:14.793Z,14.43
2022-10-11T17:21:42.337Z,19.23
2022-10-11T17:24:09.876Z,17.77
2022-10-11T17:26:37.080Z,16.58
2022-10-11T17:29:04.480Z,22.40
2022-10-11T17:31:31.937Z,55.47
2022-10-11T17:34:00.836Z,41.33
2022-10-11T17:36:38.520Z,18.80
2022-10-11T17:39:12.330Z,45.97
2022-10-11T17:41:39.769Z,34.60
2022-10-11T17:44:11.114Z,16.63
2022-10-11T17:46:39.059Z,17.38
2022-10-11T17:49:08.285Z,13.52
2022-10-11T17:51:36.908Z,15.40
2022-10-11T17:54:04.670Z,11.80
2022-10-11T17:56:37.886Z,15.98
2022-10-11T17:59:05.969Z,19.05
2022-10-11T18:01:33.086Z,22.35
2022-10-11T18:04:03.206Z,25.02
2022-10-11T18:06:43.331Z,22.02
2022-10-11T18:09:10.558Z,24.58
2022-10-11T18:11:38.582Z,13.25
2022-10-11T18:14:06.027Z,15.82
2022-10-11T18:17:09.052Z,22.38
2022-10-11T18:19:36.185Z,16.83
2022-10-11T18:22:07.530Z,17.45
2022-10-11T18:24:47.498Z,15.68
2022-10-11T18:27:20.355Z,18.05
2022-10-11T18:29:57.027Z,19.83
2022-10-11T18:32:24.927Z,17.73
2022-10-11T18:34:52.967Z,21.70
2022-10-11T18:37:48.435Z,18.90
2022-10-11T18:40:26.761Z,12.07
2022-10-11T18:42:53.812Z,24.25
2022-10-11T18:45:24.272Z,18.27
2022-10-11T18:47:51.443Z,24.55
2022-10-11T18:50:19.088Z,21.35
2022-10-11T18:52:48.557Z,15.82
2022-10-11T18:55:15.937Z,18.42
2022-10-11T18:57:46.564Z,15.77
2022-10-11T19:00:37.716Z,18.48
2022-10-11T19:03:01.452Z,18.70
2022-10-11T19:05:28.412Z,17.20
2022-10-11T19:07:55.895Z,20.25
2022-10-11T19:10:23.082Z,22.55
2022-10-11T19:12:50.472Z,18.95
2022-10-11T19:15:17.684Z,16.15
2022-10-11T19:17:44.881Z,24.40
2022-10-11T19:20:13.010Z,18.10
2022-10-11T19:22:39.853Z,19.25
2022-10-11T19:25:07.062Z,15.90
2022-10-11T19:27:34.045Z,25.70
2022-10-11T19:30:06.902Z,17.13
2022-10-11T19:32:36.616Z,13.68
2022-10-11T19:35:06.830Z,22.40
2022-10-11T19:37:41.386Z,25.42
2022-10-11T19:40:14.347Z,14.43
2022-10-11T19:42:44.519Z,15.10
2022-10-11T19:45:13.691Z,16.60
2022-10-11T19:47:42.807Z,19.95
2022-10-11T19:50:11.236Z,13.27
2022-10-11T19:52:44.940Z,16.25
2022-10-11T19:55:12.441Z,15.02
2022-10-11T19:57:39.429Z,18.73
2022-10-11T20:00:10.022Z,24.88
2022-10-11T20:02:37.197Z,18.33
2022-10-11T20:05:05.861Z,14.65
2022-10-11T20:07:33.041Z,14.00
2022-10-11T20:10:00.391Z,10.57
2022-10-11T20:12:29.578Z,21.50
2022-10-11T20:14:56.756Z,10.48
2022-10-11T20:17:43.655Z,13.40
2022-10-11T20:20:10.791Z,12.57
2022-10-11T20:22:40.384Z,16.58
2022-10-11T20:25:07.648Z,18.17
2022-10-11T20:27:35.022Z,14.32
2022-10-11T20:30:02.163Z,13.05
2022-10-11T20:32:29.300Z,14.27
2022-10-11T20:34:58.139Z,11.75
2022-10-11T20:37:27.572Z,13.85
2022-10-11T20:39:54.468Z,13.57
2022-10-11T20:42:28.938Z,10.90
2022-10-11T20:44:57.375Z,10.35
2022-10-11T20:47:26.466Z,13.85
2022-10-11T20:49:53.586Z,12.90
2022-10-11T20:52:26.583Z,12.73
2022-10-11T20:55:06.793Z,11.65
2022-10-11T20:57:34.053Z,11.60
2022-10-11T21:00:01.311Z,11.20
2022-10-11T21:02:28.534Z,10.43
2022-10-11T21:04:55.508Z,10.63
2022-10-11T21:07:22.417Z,11.73
2022-10-11T21:09:52.432Z,10.55
2022-10-11T21:12:19.431Z,15.13
2022-10-11T21:14:48.333Z,10.65
2022-10-11T21:17:16.238Z,9.70
2022-10-11T21:19:43.115Z,9.57
2022-10-11T21:22:10.222Z,9.30
2022-10-11T21:24:37.123Z,12.05
2022-10-11T21:27:03.967Z,11.10
2022-10-11T21:29:30.774Z,14.85
2022-10-11T21:31:57.656Z,15.38
2022-10-11T21:34:24.542Z,10.25
2022-10-11T21:36:51.288Z,13.63
2022-10-11T21:39:18.299Z,11.10
2022-10-11T21:41:45.086Z,14.10
2022-10-11T21:44:11.923Z,9.10
2022-10-11T21:49:26.140Z,10.95
2022-10-11T21:51:52.954Z,15.20
2022-10-11T21:54:20.091Z,12.27
2022-10-11T21:56:47.423Z,11.90
2022-10-11T21:59:14.235Z,12.15
2022-10-11T22:01:42.035Z,17.23
2022-10-11T22:04:09.647Z,16.10
2022-10-11T22:06:37.506Z,14.43
2022-10-11T22:09:05.590Z,11.57
2022-10-11T22:11:32.600Z,14.68
2022-10-11T22:13:59.582Z,15.02
2022-10-11T22:16:26.538Z,13.40
2022-10-11T22:18:54.284Z,14.30
2022-10-11T22:21:23.278Z,16.83
2022-10-11T22:23:52.224Z,11.55
2022-10-11T22:26:22.358Z,13.43
2022-10-11T22:28:49.295Z,16.60
2022-10-11T22:31:18.586Z,18.25
2022-10-11T22:36:19.184Z,17.30
2022-10-11T22:38:46.689Z,11.40
2022-10-11T22:41:13.600Z,11.77
2022-10-11T22:43:40.631Z,13.90
2022-10-11T22:46:08.055Z,16.20
2022-10-11T22:48:35.041Z,11.10
2022-10-11T22:51:03.279Z,15.80
2022-10-11T22:53:30.924Z,11.40
2022-10-11T22:55:58.150Z,13.35
2022-10-11T22:58:25.121Z,15.48
2022-10-11T23:00:52.116Z,20.08
2022-10-11T23:03:19.913Z,12.10
2022-10-11T23:05:57.806Z,9.13
2022-10-11T23:08:25.688Z,13.77
2022-10-11T23:10:53.505Z,8.50
2022-10-11T23:13:20.554Z,8.52
2022-10-11T23:15:47.620Z,9.43
2022-10-11T23:18:16.492Z,12.52
2022-10-11T23:20:43.739Z,7.68
2022-10-11T23:23:10.649Z,7.25
2022-10-11T23:25:37.582Z,10.00
2022-10-11T23:28:04.797Z,5.70
2022-10-11T23:30:31.867Z,11.65
2022-10-11T23:32:58.813Z,7.65
2022-10-11T23:35:25.903Z,7.18
2022-10-11T23:37:54.306Z,6.75
2022-10-11T23:40:21.626Z,5.35
2022-10-11T23:42:48.656Z,7.43
2022-10-11T23:45:15.756Z,7.18
2022-10-11T23:47:42.911Z,7.07
2022-10-11T23:50:10.184Z,10.15
2022-10-11T23:52:37.097Z,6.53
2022-10-11T23:55:04.443Z,7.80
2022-10-11T23:57:31.542Z,8.25
2022-10-11T23:59:58.683Z,8.50
